Time;durP1;ratioP1;P1;durP2;ratioP2;P2;SDS_P1;SDS_P2;PMS_P1;PMS_P2;Temp;Humidity;BMP_temperature;BMP_pressure;BME280_temperature;BME280_humidity;BME280_pressure;Samples;Min_cycle;Max_cycle;Signal;HPM_P1;HPM_P2
2022/04/13 00:01:27;;;;;;;11.20;7.53;;;;;;;;;;6166810;23;20466;-94
2022/04/13 00:03:53;;;;;;;8.40;6.80;;;;;;;;;;6166573;23;20020;-94
2022/04/13 00:06:19;;;;;;;10.30;6.63;;;;;;;;;;6166417;23;20013;-90
2022/04/13 00:08:45;;;;;;;7.95;5.78;;;;;;;;;;6191332;23;20024;-91
2022/04/13 00:11:13;;;;;;;9.25;6.72;;;;;;;;;;6166596;23;20020;-90
2022/04/13 00:13:40;;;;;;;16.38;6.65;;;;;;;;;;6166216;23;20465;-91
2022/04/13 00:16:06;;;;;;;9.50;6.97;;;;;;;;;;6190828;23;20017;-87
2022/04/13 00:18:32;;;;;;;12.55;6.75;;;;;;;;;;6166815;23;20072;-90
2022/04/13 00:20:58;;;;;;;9.07;7.65;;;;;;;;;;6166654;23;20104;-88
2022/04/13 00:23:24;;;;;;;13.68;7.28;;;;;;;;;;6191194;23;20024;-91
2022/04/13 00:25:51;;;;;;;10.20;8.00;;;;;;;;;;6167038;23;20412;-92
2022/04/13 00:28:18;;;;;;;8.70;7.25;;;;;;;;;;6167648;23;20012;-92
2022/04/13 00:30:44;;;;;;;12.27;8.85;;;;;;;;;;6167267;23;20016;-91
2022/04/13 00:33:10;;;;;;;11.05;8.48;;;;;;;;;;6167569;23;20082;-90
2022/04/13 00:35:37;;;;;;;15.80;7.65;;;;;;;;;;6192173;23;20023;-93
2022/04/13 00:38:04;;;;;;;9.38;7.75;;;;;;;;;;6191611;23;20315;-94
2022/04/13 00:40:30;;;;;;;11.25;8.35;;;;;;;;;;6191521;23;20031;-96
2022/04/13 00:42:56;;;;;;;9.85;7.72;;;;;;;;;;6191076;23;20020;-93
2022/04/13 00:45:22;;;;;;;17.55;8.50;;;;;;;;;;6192374;23;20047;-91
2022/04/13 00:47:48;;;;;;;14.68;9.00;;;;;;;;;;6192281;23;20086;-94
2022/04/13 00:50:14;;;;;;;14.32;9.48;;;;;;;;;;6191887;23;20024;-91
2022/04/13 00:52:48;;;;;;;11.85;8.68;;;;;;;;;;6167580;23;20048;-91
2022/04/13 00:55:15;;;;;;;10.95;8.30;;;;;;;;;;6192480;23;20016;-93
2022/04/13 00:57:42;;;;;;;12.55;9.27;;;;;;;;;;6191796;23;20584;-93
2022/04/13 01:00:12;;;;;;;13.88;9.15;;;13.20;99.90;;;;;;6166692;23;20473;-90
2022/04/13 01:02:39;;;;;;;18.98;9.68;;;;;;;;;;6191788;23;20017;-90
2022/04/13 01:05:06;;;;;;;13.65;9.32;;;;;;;;;;6190489;23;20047;-92
2022/04/13 01:07:33;;;;;;;15.07;8.82;;;;;;;;;;6190736;23;20520;-90
2022/04/13 01:10:00;;;;;;;12.82;8.65;;;;;;;;;;6166475;23;20048;-91
2022/04/13 01:12:27;;;;;;;12.60;9.25;;;;;;;;;;6190657;23;20016;-91
2022/04/13 01:14:53;;;;;;;13.30;9.50;;;;;;;;;;6165415;23;20112;-93
2022/04/13 01:17:19;;;;;;;12.85;8.20;;;;;;;;;;6164913;23;20116;-91
2022/04/13 01:19:46;;;;;;;12.68;9.48;;;;;;;;;;6164820;23;20028;-88
2022/04/13 01:22:21;;;;;;;15.52;8.80;;;;;;;;;;6164575;23;20017;-89
2022/04/13 01:24:48;;;;;;;17.27;8.93;;;;;;;;;;6164695;23;20096;-89
2022/04/13 01:27:14;;;;;;;16.25;8.90;;;;;;;;;;6164863;23;20020;-88
2022/04/13 01:29:44;;;;;;;16.00;10.75;;;;;;;;;;6189762;23;20027;-89
2022/04/13 01:32:14;;;;;;;11.30;9.18;;;;;;;;;;6189810;23;20019;-89
2022/04/13 01:34:50;;;;;;;15.10;10.05;;;;;;;;;;6165022;23;20023;-90
2022/04/13 01:37:16;;;;;;;12.90;9.88;;;;;;;;;;6164884;23;20017;-90
2022/04/13 01:39:42;;;;;;;12.57;9.35;;;;;;;;;;6164604;23;20020;-88
2022/04/13 01:42:10;;;;;;;12.48;9.68;;;;;;;;;;6165239;23;20016;-91
2022/04/13 01:44:36;;;;;;;21.25;9.85;;;;;;;;;;6189399;23;20474;-88
2022/04/13 01:47:02;;;;;;;14.88;9.43;;;;;;;;;;6189204;23;20012;-90
2022/04/13 01:49:28;;;;;;;13.85;9.75;;;;;;;;;;6189193;23;20027;-88
2022/04/13 01:51:54;;;;;;;17.58;10.05;;;;;;;;;;6189579;23;20017;-92
2022/04/13 01:54:20;;;;;;;14.90;10.10;;;;;;;;;;6164456;23;20050;-90
2022/04/13 01:56:46;;;;;;;13.30;10.25;;;;;;;;;;6189347;23;20082;-89
2022/04/13 01:59:12;;;;;;;13.60;9.90;;;;;;;;;;6165062;23;20016;-89
2022/04/13 02:01:43;;;;;;;17.58;11.48;;;;;;;;;;6165021;23;20401;-89
2022/04/13 02:04:22;;;;;;;16.20;11.15;;;;;;;;;;6164972;23;20017;-93
2022/04/13 02:06:48;;;;;;;16.25;10.80;;;;;;;;;;6164557;23;20024;-91
2022/04/13 02:09:15;;;;;;;14.93;11.20;;;;;;;;;;6163094;23;20450;-90
2022/04/13 02:11:41;;;;;;;14.68;11.07;;;;;;;;;;6164472;23;20017;-90
2022/04/13 02:14:08;;;;;;;17.75;10.38;;;;;;;;;;6189848;23;20098;-89
2022/04/13 02:16:35;;;;;;;19.58;12.27;;;12.70;99.90;;;;;;6164923;23;20019;-87
2022/04/13 02:19:01;;;;;;;15.27;10.73;;;;;;;;;;6165595;23;20021;-88
2022/04/13 02:21:27;;;;;;;19.40;12.05;;;;;;;;;;6164399;23;20009;-89
2022/04/13 02:23:53;;;;;;;18.48;12.57;;;;;;;;;;6164929;23;20091;-89
2022/04/13 02:26:19;;;;;;;13.93;11.35;;;;;;;;;;6189719;23;20012;-92
2022/04/13 02:28:46;;;;;;;18.45;12.13;;;;;;;;;;6189022;23;20016;-88
2022/04/13 02:31:12;;;;;;;18.88;11.95;;;;;;;;;;6189138;23;20021;-89
2022/04/13 02:33:39;;;;;;;21.23;13.00;;;;;;;;;;6164633;23;20021;-90
2022/04/13 02:36:08;;;;;;;20.67;12.10;;;;;;;;;;6164398;23;20017;-88
2022/04/13 02:38:34;;;;;;;22.50;13.05;;;;;;;;;;6164011;23;20063;-87
2022/04/13 02:41:00;;;;;;;20.05;11.88;;;;;;;;;;6164626;23;20481;-91
2022/04/13 02:43:28;;;;;;;15.65;12.10;;;;;;;;;;6164970;23;20020;-91
2022/04/13 02:45:54;;;;;;;20.20;13.27;;;;;;;;;;6188912;23;20017;-90
2022/04/13 02:48:20;;;;;;;22.35;14.45;;;;;;;;;;6164116;23;20028;-88
2022/04/13 02:50:48;;;;;;;19.38;13.45;;;;;;;;;;6190080;23;20420;-91
2022/04/13 02:53:15;;;;;;;29.92;13.85;;;;;;;;;;6165194;23;20342;-88
2022/04/13 02:55:41;;;;;;;19.77;13.40;;;;;;;;;;6165018;23;20523;-89
2022/04/13 02:58:07;;;;;;;23.92;12.85;;;;;;;;;;6165896;23;20038;-89
2022/04/13 03:00:33;;;;;;;21.17;12.93;;;;;;;;;;6190231;23;20020;-90
2022/04/13 03:02:59;;;;;;;18.20;12.90;;;;;;;;;;6190207;23;20013;-85
2022/04/13 03:05:25;;;;;;;24.75;13.38;;;;;;;;;;6164796;23;20048;-90
2022/04/13 03:07:51;;;;;;;23.60;12.60;;;;;;;;;;6164963;23;20446;-90
2022/04/13 03:10:17;;;;;;;21.70;11.27;;;;;;;;;;6190067;23;20029;-94
2022/04/13 03:12:44;;;;;;;20.73;11.80;;;;;;;;;;6189475;23;20024;-83
2022/04/13 03:15:11;;;;;;;18.70;12.18;;;;;;;;;;6164989;23;20017;-89
2022/04/13 03:17:37;;;;;;;26.23;14.88;;;;;;;;;;6190035;23;20017;-88
2022/04/13 03:20:03;;;;;;;25.85;13.60;;;;;;;;;;6190673;23;20052;-88
2022/04/13 03:22:29;;;;;;;19.00;13.13;;;;;;;;;;6191602;23;20024;-93
2022/04/13 03:24:56;;;;;;;22.20;14.50;;;;;;;;;;6166189;23;20070;-87
2022/04/13 03:27:22;;;;;;;25.80;14.25;;;;;;;;;;6191813;23;20013;-89
2022/04/13 03:29:48;;;;;;;24.40;15.05;;;;;;;;;;6191585;23;20024;-90
2022/04/13 03:32:14;;;;;;;18.45;13.60;;;;;;;;;;6167019;23;20016;-90
2022/04/13 03:34:40;;;;;;;27.52;14.82;;;;;;;;;;6191378;23;20020;-89
2022/04/13 03:37:06;;;;;;;19.00;14.00;;;;;;;;;;6167530;23;20350;-94
2022/04/13 03:39:32;;;;;;;22.88;15.02;;;;;;;;;;6191515;23;20024;-92
2022/04/13 03:41:58;;;;;;;22.35;13.85;;;;;;;;;;6191101;23;20025;-93
2022/04/13 03:44:24;;;;;;;23.77;15.63;;;;;;;;;;6192021;23;20039;-92
2022/04/13 03:46:50;;;;;;;22.60;15.05;;;;;;;;;;6167104;23;20021;-93
2022/04/13 03:49:16;;;;;;;28.00;15.63;;;;;;;;;;6191450;23;20323;-92
2022/04/13 03:51:42;;;;;;;22.92;14.85;;;;;;;;;;6192734;23;20025;-94
2022/04/13 03:54:09;;;;;;;27.70;15.63;;;;;;;;;;6192691;23;20075;-91
2022/04/13 03:56:36;;;;;;;23.13;16.05;;;;;;;;;;6192883;23;20047;-93
2022/04/13 03:59:02;;;;;;;23.02;15.25;;;;;;;;;;6167282;23;20044;-82
2022/04/13 04:01:30;;;;;;;24.77;16.38;;;;;;;;;;6191486;23;20024;-87
2022/04/13 04:03:56;;;;;;;25.60;15.07;;;;;;;;;;6192337;23;20481;-91
2022/04/13 04:06:23;;;;;;;19.70;14.55;;;;;;;;;;6191592;23;20028;-94
2022/04/13 04:08:50;;;;;;;18.50;14.02;;;;;;;;;;6166569;23;20017;-84
2022/04/13 04:11:16;;;;;;;22.52;14.75;;;;;;;;;;6166602;23;20406;-88
2022/04/13 04:13:42;;;;;;;25.35;16.73;;;;;;;;;;6192041;23;20017;-92
2022/04/13 04:16:08;;;;;;;25.48;14.68;;;;;;;;;;6191409;23;20020;-88
2022/04/13 04:18:35;;;;;;;22.98;17.25;;;;;;;;;;6166571;23;20013;-92
2022/04/13 04:21:01;;;;;;;23.27;14.32;;;;;;;;;;6166022;23;20044;-91
2022/04/13 04:23:27;;;;;;;21.60;15.48;;;;;;;;;;6190655;23;20054;-89
2022/04/13 04:25:53;;;;;;;21.50;15.48;;;;;;;;;;6166897;23;20103;-89
2022/04/13 04:28:19;;;;;;;25.70;16.55;;;;;;;;;;6166863;23;20103;-84
2022/04/13 04:30:45;;;;;;;25.95;16.23;;;;;;;;;;6167234;23;20017;-93
2022/04/13 04:33:16;;;;;;;21.58;15.88;;;;;;;;;;6193049;23;20017;-93
2022/04/13 04:35:46;;;;;;;22.90;15.77;;;11.90;99.90;;;;;;6168958;23;20016;-84
2022/04/13 04:38:12;;;;;;;20.73;15.00;;;;;;;;;;6194256;23;20020;-93
2022/04/13 04:40:38;;;;;;;26.08;14.77;;;;;;;;;;6167296;23;20048;-89
2022/04/13 04:43:04;;;;;;;23.45;15.75;;;;;;;;;;6192363;23;20024;-87
2022/04/13 04:45:30;;;;;;;21.05;14.77;;;;;;;;;;6193464;23;20047;-88
2022/04/13 04:48:03;;;;;;;24.52;16.48;;;;;;;;;;6168393;23;20066;-93
2022/04/13 04:50:30;;;;;;;24.23;15.45;;;;;;;;;;6194828;23;20040;-92
2022/04/13 04:52:56;;;;;;;20.45;14.43;;;;;;;;;;6193634;23;20032;-88
2022/04/13 04:55:22;;;;;;;26.42;16.83;;;;;;;;;;6192902;23;20031;-84
2022/04/13 04:57:49;;;;;;;25.05;16.92;;;;;;;;;;6168069;23;20025;-93
2022/04/13 05:00:20;;;;;;;29.63;15.23;;;11.80;99.90;;;;;;6166763;23;20021;-94
2022/04/13 05:02:49;;;;;;;26.50;14.75;;;;;;;;;;6191740;23;20020;-91
2022/04/13 05:05:16;;;;;;;29.65;16.88;;;;;;;;;;6191819;23;20016;-85
2022/04/13 05:07:42;;;;;;;26.58;16.70;;;;;;;;;;6162363;23;20024;-88
2022/04/13 05:10:09;;;;;;;25.45;15.75;;;;;;;;;;6160382;23;20080;-85
2022/04/13 05:12:41;;;;;;;23.10;15.45;;;11.80;99.90;;;;;;6160891;23;20017;-92
2022/04/13 05:15:08;;;;;;;29.73;16.08;;;;;;;;;;6160776;23;20454;-86
2022/04/13 05:17:34;;;;;;;30.15;17.30;;;;;;;;;;6185277;23;20091;-93
2022/04/13 05:20:00;;;;;;;20.85;15.18;;;;;;;;;;6160723;23;20025;-91
2022/04/13 05:22:26;;;;;;;23.17;15.63;;;;;;;;;;6159762;23;20017;-86
2022/04/13 05:24:52;;;;;;;23.95;15.85;;;;;;;;;;6161491;23;20017;-83
2022/04/13 05:27:19;;;;;;;22.73;15.90;;;;;;;;;;6185536;23;20053;-84
2022/04/13 05:29:45;;;;;;;23.13;15.50;;;;;;;;;;6185353;23;20021;-83
2022/04/13 05:32:13;;;;;;;28.80;14.98;;;;;;;;;;6160910;23;20019;-87
2022/04/13 05:34:39;;;;;;;27.85;15.13;;;;;;;;;;6161061;23;20025;-90
2022/04/13 05:37:05;;;;;;;24.33;14.98;;;;;;;;;;6185654;23;20013;-92
2022/04/13 05:39:31;;;;;;;24.02;15.27;;;;;;;;;;6160814;23;20328;-87
2022/04/13 05:41:57;;;;;;;24.10;15.88;;;;;;;;;;6160879;23;20048;-90
2022/04/13 05:44:23;;;;;;;24.75;15.30;;;;;;;;;;6134940;23;20448;-85
2022/04/13 05:46:49;;;;;;;22.48;14.38;;;;;;;;;;6131012;23;20022;-88
2022/04/13 05:49:16;;;;;;;26.63;14.90;;;;;;;;;;6131058;23;20443;-86
2022/04/13 05:51:42;;;;;;;25.30;16.40;;;;;;;;;;6155423;23;20104;-87
2022/04/13 05:54:08;;;;;;;24.02;15.73;;;;;;;;;;6130608;23;20072;-83
2022/04/13 05:56:34;;;;;;;26.05;15.35;;;;;;;;;;6132306;23;20376;-88
2022/04/13 05:59:00;;;;;;;24.60;15.55;;;;;;;;;;6133077;23;20049;-90
2022/04/13 06:01:26;;;;;;;27.85;16.90;;;;;;;;;;6108823;23;20017;-87
2022/04/13 06:03:55;;;;;;;24.90;16.48;;;;;;;;;;6132545;23;20025;-83
2022/04/13 06:06:25;;;;;;;24.73;15.60;;;;;;;;;;6108165;23;20025;-85
2022/04/13 06:08:51;;;;;;;24.42;16.70;;;;;;;;;;6132522;23;20021;-89
2022/04/13 06:11:17;;;;;;;25.10;15.90;;;;;;;;;;6132738;23;20024;-85
2022/04/13 06:13:44;;;;;;;28.92;16.85;;;;;;;;;;6130686;23;20402;-89
2022/04/13 06:16:12;;;;;;;27.02;16.15;;;;;;;;;;6130410;23;20064;-89
2022/04/13 06:18:41;;;;;;;28.70;16.35;;;;;;;;;;6131625;23;20403;-87
2022/04/13 06:21:09;;;;;;;27.10;17.05;;;;;;;;;;6131355;23;20013;-85
2022/04/13 06:23:35;;;;;;;30.48;17.27;;;;;;;;;;6131122;23;20048;-86
2022/04/13 06:26:17;;;;;;;;;;;;;;;;;;;;;
2022/04/13 06:28:44;;;;;;;26.88;17.55;;;;;;;;;;6147423;23;20018;-89
2022/04/13 06:31:10;;;;;;;28.75;17.33;;;;;;;;;;6152493;23;20088;-84
2022/04/13 06:33:36;;;;;;;26.30;17.55;;;;;;;;;;6155573;23;20018;-87
2022/04/13 06:36:05;;;;;;;27.30;17.02;;;;;;;;;;6153564;23;20017;-84
2022/04/13 06:38:31;;;;;;;26.83;16.08;;;;;;;;;;6153366;23;20486;-85
2022/04/13 06:40:57;;;;;;;29.70;16.05;;;;;;;;;;6153228;23;20418;-89
2022/04/13 06:43:23;;;;;;;34.28;17.90;;;;;;;;;;6153843;23;20403;-87
2022/04/13 06:45:49;;;;;;;22.23;16.27;;;;;;;;;;6155632;23;20026;-89
2022/04/13 06:48:15;;;;;;;24.23;16.00;;;;;;;;;;6155532;23;20052;-86
2022/04/13 06:50:41;;;;;;;28.95;15.10;;;;;;;;;;6154212;23;20107;-88
2022/04/13 06:53:07;;;;;;;22.85;16.75;;;;;;;;;;6156177;23;20401;-87
2022/04/13 06:55:34;;;;;;;27.63;16.65;;;;;;;;;;6156556;23;20013;-84
2022/04/13 06:58:00;;;;;;;33.55;18.88;;;;;;;;;;6155434;23;20014;-84
2022/04/13 07:00:26;;;;;;;28.67;19.33;;;;;;;;;;6155624;23;20018;-84
2022/04/13 07:02:57;;;;;;;24.00;15.80;;;;;;;;;;6155001;23;20056;-86
2022/04/13 07:05:23;;;;;;;23.77;15.57;;;;;;;;;;6130981;23;20104;-83
2022/04/13 07:07:49;;;;;;;24.98;14.27;;;;;;;;;;6155790;23;20075;-84
2022/04/13 07:10:15;;;;;;;21.58;15.13;;;;;;;;;;6130818;23;20018;-86
2022/04/13 07:12:41;;;;;;;25.55;13.98;;;;;;;;;;6156215;23;20073;-85
2022/04/13 07:15:08;;;;;;;27.63;14.45;;;;;;;;;;6155986;23;20013;-83
2022/04/13 07:17:35;;;;;;;27.17;16.95;;;;;;;;;;6156349;23;20017;-86
2022/04/13 07:20:01;;;;;;;27.33;14.30;;;;;;;;;;6154943;23;20050;-85
2022/04/13 07:22:27;;;;;;;27.67;15.13;;;;;;;;;;6157169;23;20079;-85
2022/04/13 07:24:53;;;;;;;20.50;13.68;;;;;;;;;;6155277;23;20009;-84
2022/04/13 07:27:19;;;;;;;24.90;13.07;;;;;;;;;;6157238;23;20025;-84
2022/04/13 07:29:45;;;;;;;21.13;12.32;;;;;;;;;;6130424;23;20096;-83
2022/04/13 07:32:11;;;;;;;22.10;13.10;;;;;;;;;;6155363;23;20060;-83
2022/04/13 07:34:38;;;;;;;21.38;14.27;;;;;;;;;;6130518;23;20032;-83
2022/04/13 07:37:04;;;;;;;25.73;14.38;;;13.40;99.90;;;;;;6130789;23;20025;-87
2022/04/13 07:39:30;;;;;;;21.23;13.65;;;;;;;;;;6106681;23;20014;-83
2022/04/13 07:41:56;;;;;;;18.98;11.18;;;;;;;;;;6132043;23;20024;-84
2022/04/13 07:44:22;;;;;;;18.60;12.23;;;;;;;;;;6132020;23;20024;-83
2022/04/13 07:46:49;;;;;;;24.40;12.27;;;;;;;;;;6131218;23;20104;-83
2022/04/13 07:49:15;;;;;;;19.30;13.35;;;;;;;;;;6155407;23;20332;-83
2022/04/13 07:51:41;;;;;;;20.20;12.60;;;;;;;;;;6130851;23;20022;-84
2022/04/13 07:54:07;;;;;;;20.30;12.63;;;;;;;;;;6131731;23;20057;-82
2022/04/13 07:56:35;;;;;;;20.10;11.98;;;;;;;;;;6155367;23;20092;-87
2022/04/13 07:59:01;;;;;;;19.35;12.15;;;;;;;;;;6155027;23;20017;-82
2022/04/13 08:01:27;;;;;;;24.50;11.23;;;13.30;99.90;;;;;;6153796;23;20028;-82
2022/04/13 08:03:53;;;;;;;18.63;12.95;;;;;;;;;;6130103;23;20096;-87
2022/04/13 08:06:19;;;;;;;21.38;12.85;;;;;;;;;;6154180;23;20025;-86
2022/04/13 08:08:45;;;;;;;19.50;13.05;;;;;;;;;;6155276;23;20355;-83
2022/04/13 08:11:11;;;;;;;19.98;12.60;;;;;;;;;;6155969;23;20352;-83
2022/04/13 08:13:37;;;;;;;17.00;11.18;;;;;;;;;;6156614;23;20021;-82
2022/04/13 08:16:04;;;;;;;21.08;11.60;;;;;;;;;;6155471;23;20056;-88
2022/04/13 08:18:31;;;;;;;20.63;11.38;;;;;;;;;;6156114;23;20021;-88
2022/04/13 08:20:59;;;;;;;19.15;11.40;;;;;;;;;;6134609;23;20025;-88
2022/04/13 08:23:25;;;;;;;15.40;10.82;;;;;;;;;;6134014;23;20047;-88
2022/04/13 08:25:51;;;;;;;15.80;10.73;;;;;;;;;;6158031;23;20026;-87
2022/04/13 08:28:17;;;;;;;16.67;10.65;;;;;;;;;;6108872;23;20018;-86
2022/04/13 08:30:43;;;;;;;21.55;11.48;;;;;;;;;;6133199;23;20017;-87
2022/04/13 08:33:10;;;;;;;24.35;11.98;;;;;;;;;;6157063;23;20040;-87
2022/04/13 08:35:36;;;;;;;15.25;10.20;;;;;;;;;;6132603;23;20028;-89
2022/04/13 08:38:02;;;;;;;13.07;10.32;;;;;;;;;;6156963;23;20478;-91
2022/04/13 08:40:33;;;;;;;15.95;9.60;;;;;;;;;;6133807;23;20076;-86
2022/04/13 08:43:07;;;;;;;14.82;9.07;;;14.70;99.90;;;;;;6160458;23;20014;-84
2022/04/13 08:46:11;;;;;;;12.25;8.60;;;;;;;;;;6140957;23;20087;-83
2022/04/13 08:48:40;;;;;;;11.82;9.40;;;14.70;99.90;;;;;;6077574;23;20039;-85
2022/04/13 08:51:08;;;;;;;18.85;10.13;;;14.90;99.90;;;;;;6075835;23;20076;-83
2022/04/13 08:53:37;;;;;;;19.55;8.10;;;14.80;99.90;;;;;;6099408;23;20465;-82
2022/04/13 08:56:03;;;;;;;11.98;8.98;;;14.90;99.90;;;;;;6100341;23;20467;-84
2022/04/13 08:58:30;;;;;;;16.85;9.63;;;;;;;;;;6101367;23;20022;-90
2022/04/13 09:01:02;;;;;;;15.32;10.00;;;15.00;99.90;;;;;;6077735;23;20026;-87
2022/04/13 09:03:34;;;;;;;12.50;9.45;;;;;;;;;;6101761;23;20020;-88
2022/04/13 09:06:00;;;;;;;14.65;9.75;;;;;;;;;;6101790;23;20022;-90
2022/04/13 09:08:47;;;;;;;14.75;9.02;;;14.80;99.90;;;;;;6077085;23;20069;-89
2022/04/13 09:11:13;;;;;;;14.95;10.02;;;;;;;;;;6102442;23;20114;-89
2022/04/13 09:13:40;;;;;;;16.23;10.07;;;;;;;;;;6077152;23;20033;-87
2022/04/13 09:16:06;;;;;;;22.05;10.27;;;;;;;;;;6078782;23;20021;-89
2022/04/13 09:18:32;;;;;;;16.23;10.07;;;;;;;;;;6077132;23;20021;-91
2022/04/13 09:21:00;;;;;;;17.73;9.90;;;;;;;;;;6102237;23;20391;-92
2022/04/13 09:23:26;;;;;;;14.18;9.65;;;;;;;;;;6078264;23;20014;-92
2022/04/13 09:25:54;;;;;;;17.58;9.32;;;15.50;99.90;;;;;;6154161;23;20466;-83
2022/04/13 09:28:20;;;;;;;14.35;9.82;;;15.60;99.90;;;;;;6134767;23;20060;-85
2022/04/13 09:30:46;;;;;;;14.90;10.05;;;;;;;;;;6136354;23;20028;-84
2022/04/13 09:33:13;;;;;;;18.60;10.25;;;;;;;;;;6135678;23;20017;-84
2022/04/13 09:35:39;;;;;;;14.65;10.63;;;;;;;;;;6135300;23;20017;-84
2022/04/13 09:38:06;;;;;;;19.88;11.55;;;15.50;99.90;;;;;;6160983;23;20063;-89
2022/04/13 09:40:38;;;;;;;16.20;10.75;;;15.70;99.90;;;;;;6137317;23;20095;-87
2022/04/13 09:43:12;;;;;;;16.45;10.13;;;15.70;99.90;;;;;;6135605;23;20024;-84
2022/04/13 09:45:49;;;;;;;17.95;9.43;;;;;;;;;;6160741;23;20055;-83
2022/04/13 09:48:23;;;;;;;17.55;10.20;;;15.90;99.90;;;;;;6136356;23;20017;-84
2022/04/13 09:51:03;;;;;;;17.02;10.15;;;15.80;99.90;;;;;;6137410;23;20104;-84
2022/04/13 09:53:31;;;;;;;15.15;8.65;;;;;;;;;;6157390;23;20091;-89
2022/04/13 09:55:59;;;;;;;12.15;7.88;;;16.00;99.90;;;;;;6160537;23;20024;-83
2022/04/13 09:58:28;;;;;;;14.25;8.77;;;16.00;99.90;;;;;;6136389;23;20434;-90
2022/04/13 10:00:55;;;;;;;13.82;7.70;;;16.20;99.90;;;;;;6161073;23;20021;-90
2022/04/13 10:03:23;;;;;;;12.82;7.82;;;16.20;99.90;;;;;;6138362;23;20083;-91
2022/04/13 10:05:54;;;;;;;11.90;8.30;;;16.30;99.90;;;;;;6163471;23;20071;-87
2022/04/13 10:08:25;;;;;;;12.35;8.48;;;16.30;99.90;;;;;;6136339;23;20021;-88
2022/04/13 10:10:52;;;;;;;11.75;6.53;;;16.20;99.90;;;;;;6136230;23;20021;-83
2022/04/13 10:13:40;;;;;;;14.48;6.53;;;16.40;99.90;;;;;;6134155;23;20392;-84
2022/04/13 10:16:10;;;;;;;11.38;6.00;;;16.40;99.90;;;;;;6136281;23;20028;-85
2022/04/13 10:18:55;;;;;;;7.82;6.50;;;;;;;;;;6135228;23;20355;-85
2022/04/13 10:21:40;;;;;;;10.57;5.88;;;16.70;99.90;;;;;;6135904;23;20024;-87
2022/04/13 10:24:27;;;;;;;10.57;6.53;;;16.60;99.90;;;;;;6159905;23;20017;-87
2022/04/13 10:27:11;;;;;;;10.13;5.85;;;16.60;99.90;;;;;;6134729;23;20316;-84
2022/04/13 10:29:41;;;;;;;9.70;6.20;;;16.60;99.90;;;;;;6158274;23;20048;-85
2022/04/13 10:32:08;;;;;;;12.75;6.55;;;;;;;;;;6135383;23;20021;-85
2022/04/13 10:34:45;;;;;;;15.60;7.10;;;16.70;99.90;;;;;;6137167;23;20027;-88
2022/04/13 10:37:16;;;;;;;10.35;7.05;;;16.80;99.90;;;;;;6164952;23;20103;-89
2022/04/13 10:39:48;;;;;;;10.00;6.85;;;17.10;99.90;;;;;;6163661;23;20088;-85
2022/04/13 10:42:16;;;;;;;10.73;6.20;;;16.80;99.90;;;;;;6161712;23;20126;-82
2022/04/13 10:44:46;;;;;;;10.25;6.57;;;17.10;99.90;;;;;;6161020;23;20354;-84
2022/04/13 10:47:16;;;;;;;8.80;6.75;;;17.00;99.90;;;;;;6136414;23;20028;-81
2022/04/13 10:50:13;;;;;;;11.40;6.32;;;17.10;99.90;;;;;;6137912;23;20031;-85
2022/04/13 10:52:58;;;;;;;9.82;5.25;;;17.00;99.90;;;;;;6124470;23;20146;-82
2022/04/13 10:55:33;;;;;;;7.93;5.55;;;17.10;99.90;;;;;;6160050;23;20027;-87
2022/04/13 10:58:18;;;;;;;9.23;5.03;;;;;;;;;;6138371;23;20328;-86
2022/04/13 11:00:50;;;;;;;12.93;5.03;;;17.10;99.90;;;;;;6163659;23;20100;-88
2022/04/13 11:03:17;;;;;;;8.68;5.78;;;;;;;;;;6138269;23;20021;-89
2022/04/13 11:05:43;;;;;;;9.35;5.70;;;;;;;;;;6139319;23;20021;-90
2022/04/13 11:08:09;;;;;;;13.32;7.05;;;;;;;;;;6139610;23;20017;-89
2022/04/13 11:10:36;;;;;;;12.60;7.57;;;17.20;99.90;;;;;;6162351;23;20025;-88
2022/04/13 11:13:03;;;;;;;17.92;6.15;;;;;;;;;;6160639;23;20051;-89
2022/04/13 11:15:40;;;;;;;11.27;5.75;;;17.30;99.90;;;;;;6135961;23;20013;-87
2022/04/13 11:18:13;;;;;;;9.25;5.35;;;17.00;99.90;;;;;;6135921;23;20056;-87
2022/04/13 11:21:06;;;;;;;8.88;5.22;;;17.20;99.90;;;;;;6136939;23;20021;-90
2022/04/13 11:23:50;;;;;;;9.35;4.40;;;17.20;99.90;;;;;;6122348;23;20458;-91
2022/04/13 11:26:51;;;;;;;10.05;5.25;;;17.00;99.90;;;;;;6136018;23;20032;-91
2022/04/13 11:29:21;;;;;;;11.57;5.40;;;16.80;99.90;;;;;;6159086;23;20024;-91
2022/04/13 11:32:04;;;;;;;7.60;5.35;;;16.80;99.90;;;;;;6134982;23;20021;-92
2022/04/13 11:34:30;;;;;;;8.25;5.03;;;16.80;99.90;;;;;;6134594;23;20071;-91
2022/04/13 11:37:06;;;;;;;15.95;6.93;;;16.80;99.90;;;;;;6133205;23;20056;-90
2022/04/13 11:39:57;;;;;;;10.45;5.35;;;16.70;99.90;;;;;;6159394;23;20017;-89
2022/04/13 11:42:26;;;;;;;8.43;6.82;;;;;;;;;;6137261;23;20072;-89
2022/04/13 11:45:13;;;;;;;14.73;6.28;;;16.90;99.90;;;;;;6159443;23;20029;-86
2022/04/13 11:47:41;;;;;;;15.13;6.68;;;16.90;99.90;;;;;;6136021;23;20028;-89
2022/04/13 11:50:12;;;;;;;12.40;5.75;;;16.80;99.90;;;;;;6160354;23;20021;-88
2022/04/13 11:52:53;;;;;;;9.48;5.97;;;16.70;99.90;;;;;;6135760;23;20021;-90
2022/04/13 11:55:19;;;;;;;13.32;6.45;;;;;;;;;;6135532;23;20370;-86
2022/04/13 11:58:04;;;;;;;13.98;6.15;;;16.70;99.90;;;;;;6134852;23;20024;-84
2022/04/13 12:00:43;;;;;;;10.63;4.93;;;16.40;99.90;;;;;;6136435;23;20103;-89
2022/04/13 12:03:09;;;;;;;12.73;5.32;;;;;;;;;;6162413;23;20017;-87
2022/04/13 12:05:41;;;;;;;10.20;5.88;;;16.60;99.90;;;;;;6137663;23;20016;-87
2022/04/13 12:08:22;;;;;;;14.75;5.63;;;16.40;99.90;;;;;;6136014;23;20017;-88
2022/04/13 12:11:09;;;;;;;16.90;5.38;;;16.50;99.90;;;;;;6136660;23;20446;-89
2022/04/13 12:13:54;;;;;;;13.48;4.82;;;16.50;99.90;;;;;;6136022;23;20017;-89
2022/04/13 12:16:32;;;;;;;19.20;6.10;;;16.20;99.90;;;;;;6160738;23;20031;-83
2022/04/13 12:19:06;;;;;;;14.82;6.68;;;16.00;99.90;;;;;;6135107;23;20013;-86
2022/04/13 12:21:34;;;;;;;10.15;5.40;;;;;;;;;;6135186;23;20495;-90
2022/04/13 12:24:12;;;;;;;10.88;5.82;;;16.30;99.90;;;;;;6135297;23;20021;-88
2022/04/13 12:26:44;;;;;;;11.68;6.13;;;16.00;99.90;;;;;;6159636;23;20427;-90
2022/04/13 12:29:14;;;;;;;15.07;6.13;;;;;;;;;;6135419;23;20025;-88
2022/04/13 12:31:51;;;;;;;10.63;5.75;;;;;;;;;;6142621;23;20025;-86
2022/04/13 12:34:19;;;;;;;22.17;7.00;;;16.00;99.90;;;;;;6159751;23;20067;-89
2022/04/13 12:36:51;;;;;;;11.95;5.47;;;;;;;;;;6135655;23;20017;-88
2022/04/13 12:39:24;;;;;;;11.52;5.55;;;16.00;99.90;;;;;;6133937;23;20389;-91
2022/04/13 12:41:50;;;;;;;10.50;5.57;;;;;;;;;;6136979;23;20025;-90
2022/04/13 12:44:18;;;;;;;11.23;5.07;;;16.00;99.90;;;;;;6163836;23;20457;-87
2022/04/13 12:46:44;;;;;;;10.23;5.30;;;;;;;;;;6138211;23;20083;-88
2022/04/13 12:49:18;;;;;;;13.13;5.45;;;;;;;;;;6138232;23;20019;-90
2022/04/13 12:51:43;;;;;;;;;;;15.90;99.90;;;;;;6160665;23;20017;-88
2022/04/13 12:54:13;;;;;;;12.90;5.90;;;;;;;;;;6136652;23;20448;-90
2022/04/13 12:56:46;;;;;;;12.18;5.95;;;16.00;99.90;;;;;;6160012;23;20554;-88
2022/04/13 12:59:22;;;;;;;10.35;5.80;;;15.90;99.90;;;;;;6134667;23;20454;-88
2022/04/13 13:01:49;;;;;;;11.70;5.90;;;;;;;;;;6136392;23;20100;-90
2022/04/13 13:04:18;;;;;;;12.38;6.55;;;15.70;99.90;;;;;;6165203;23;20052;-90
2022/04/13 13:06:54;;;;;;;10.68;5.88;;;;;;;;;;6143870;23;20028;-85
2022/04/13 13:09:22;;;;;;;10.93;5.47;;;;;;;;;;6169599;23;20021;-87
2022/04/13 13:11:59;;;;;;;15.48;7.85;;;15.70;99.90;;;;;;6163538;23;20036;-88
2022/04/13 13:14:34;;;;;;;15.38;6.38;;;15.70;99.90;;;;;;6162446;23;20017;-92
2022/04/13 13:17:37;;;;;;;15.38;6.25;;;15.70;99.90;;;;;;6140453;23;20021;-91
2022/04/13 13:20:14;;;;;;;7.95;5.95;;;;;;;;;;6135066;23;20024;-90
2022/04/13 13:22:50;;;;;;;14.30;5.65;;;;;;;;;;6159390;23;20053;-89
2022/04/13 13:25:18;;;;;;;9.60;6.22;;;15.60;99.90;;;;;;6159669;23;20025;-87
2022/04/13 13:27:55;;;;;;;10.90;5.47;;;15.80;99.90;;;;;;6159076;23;20020;-89
2022/04/13 13:30:21;;;;;;;14.18;6.60;;;15.90;99.90;;;;;;6134937;23;20067;-93
2022/04/13 13:32:47;;;;;;;12.15;5.80;;;;;;;;;;6134896;23;20017;-90
2022/04/13 13:35:20;;;;;;;16.60;5.80;;;;;;;;;;6134975;23;20028;-91
2022/04/13 13:37:48;;;;;;;9.77;5.93;;;15.90;99.90;;;;;;6134897;23;20017;-89
2022/04/13 13:40:41;;;;;;;14.02;6.13;;;16.00;99.90;;;;;;6158397;23;20021;-88
2022/04/13 13:43:28;;;;;;;9.70;6.10;;;16.00;99.90;;;;;;6183274;23;20017;-90
2022/04/13 13:45:55;;;;;;;15.70;6.40;;;;;;;;;;6153563;23;20029;-96
2022/04/13 13:48:23;;;;;;;10.82;5.90;;;;;;;;;;6133967;23;20505;-87
2022/04/13 13:50:51;;;;;;;14.00;5.55;;;16.40;99.90;;;;;;6133915;23;20021;-87
2022/04/13 13:53:20;;;;;;;13.77;6.35;;;16.40;99.90;;;;;;6135896;23;20064;-87
2022/04/13 13:55:46;;;;;;;12.70;6.25;;;;;;;;;;6141559;23;20024;-90
2022/04/13 13:58:13;;;;;;;13.27;7.05;;;;;;;;;;6139715;23;20021;-89
2022/04/13 14:00:39;;;;;;;10.48;6.28;;;;;;;;;;6169537;23;20017;-91
2022/04/13 14:03:11;;;;;;;12.23;7.45;;;16.70;99.90;;;;;;6163566;23;20075;-92
2022/04/13 14:05:37;;;;;;;8.15;6.05;;;;;;;;;;6160149;23;20343;-92